Rome, Italy
Current Conditions -  °F | °C
As of 4:50 PM on Thursday 23 Oct 2014 (Local Time) from LIRU Reporting Station
Few Clouds Few Clouds  
Wind Chill: 17°   Ceiling: Unl
Heat Index: 17°   Visibility: 6mi
Dew Point:   Wind: 9mph
Humidity: 32%   Direction: 360°N
Pressure: 29.71"   Gusts: NA
Location:  41.9°N, 12.48°E
Report Text: LIRU 231450Z 36008KT 9999 FEW045 17/00 Q1006
Loading
Personal Weather Stations






























Interactive Weather Map
Tropical Storm Tracking
New forecast layout! Learn more

10-Day Weather Forecast

Advertisements
Track Severe Weather on mobile